Time;durP1;ratioP1;P1;durP2;ratioP2;P2;SDS_P1;SDS_P2;PMS_P1;PMS_P2;Temp;Humidity;BMP_temperature;BMP_pressure;BME280_temperature;BME280_humidity;BME280_pressure;Samples;Min_cycle;Max_cycle;Signal;HPM_P1;HPM_P2
2023/01/02 00:00:05;;;;;;;73.30;38.30;;;;;;;5.09;100.00;100203.91;6240038;23;20201;-78
2023/01/02 00:02:37;;;;;;;49.80;33.43;;;;;;;5.09;100.00;100198.59;6220423;23;20207;-78
2023/01/02 00:05:04;;;;;;;53.13;32.90;;;;;;;5.08;100.00;100200.44;6245340;23;20215;-78
2023/01/02 00:07:31;;;;;;;49.43;33.63;;;;;;;5.05;100.00;100205.25;6246113;23;20207;-78
2023/01/02 00:09:58;;;;;;;43.13;29.57;;;;;;;5.10;100.00;100218.84;6245506;23;20201;-79
2023/01/02 00:12:24;;;;;;;41.90;28.97;;;;;;;5.11;100.00;100218.69;6244871;23;20200;-78
2023/01/02 00:14:51;;;;;;;42.37;29.77;;;;;;;5.13;100.00;100216.66;6245659;23;20208;-79
2023/01/02 00:17:18;;;;;;;43.00;31.20;;;;;;;5.11;100.00;100213.38;6245811;23;20692;-79
2023/01/02 00:19:45;;;;;;;48.20;32.27;;;;;;;5.14;100.00;100206.88;6245820;23;20283;-79
2023/01/02 00:22:11;;;;;;;43.70;32.13;;;;;;;5.16;100.00;100210.22;6218691;23;20204;-78
2023/01/02 00:24:38;;;;;;;46.20;34.33;;;;;;;5.14;100.00;100207.72;6245646;23;20205;-78
2023/01/02 00:27:04;;;;;;;47.57;34.67;;;;;;;5.15;100.00;100198.75;6245549;23;20215;-79
2023/01/02 00:29:31;;;;;;;49.70;35.13;;;;;;;5.14;100.00;100202.41;6246109;23;20184;-79
2023/01/02 00:31:58;;;;;;;51.67;35.73;;;;;;;5.14;100.00;100205.06;6245498;23;20231;-79
2023/01/02 00:34:25;;;;;;;46.20;33.63;;;;;;;5.16;100.00;100195.09;6244971;23;20202;-79
2023/01/02 00:36:52;;;;;;;43.23;32.93;;;;;;;5.16;100.00;100188.97;6245629;23;20631;-79
2023/01/02 00:39:18;;;;;;;42.30;30.73;;;;;;;5.15;100.00;100187.28;6245519;23;20216;-78
2023/01/02 00:41:46;;;;;;;36.33;27.37;;;;;;;5.16;100.00;100181.81;6245502;23;20654;-79
2023/01/02 00:44:13;;;;;;;33.33;26.77;;;;;;;5.18;100.00;100179.81;6244973;23;20207;-78
2023/01/02 00:46:39;;;;;;;38.17;27.63;;;;;;;5.21;100.00;100176.81;6245581;23;20684;-79
2023/01/02 00:49:06;;;;;;;37.80;28.37;;;;;;;5.23;100.00;100181.94;6245260;23;20216;-79
2023/01/02 00:51:33;;;;;;;33.20;26.37;;;;;;;5.22;100.00;100175.81;6245190;23;20211;-79
2023/01/02 00:53:59;;;;;;;28.70;22.60;;;;;;;5.21;100.00;100163.53;6245296;23;20200;-79
2023/01/02 00:56:26;;;;;;;27.13;20.53;;;;;;;5.24;100.00;100157.03;6244665;23;20223;-79
2023/01/02 00:58:53;;;;;;;23.73;20.07;;;;;;;5.22;100.00;100159.06;6219284;23;20254;-79
2023/01/02 01:01:19;;;;;;;23.83;20.17;;;;;;;5.21;100.00;100152.09;6229910;23;20705;-79
2023/01/02 01:03:46;;;;;;;30.30;24.10;;;;;;;5.27;100.00;100162.81;6241880;23;20243;-78
2023/01/02 01:06:13;;;;;;;39.00;26.30;;;;;;;5.25;100.00;100148.06;6244501;23;20677;-78
2023/01/02 01:08:40;;;;;;;40.37;28.20;;;;;;;5.22;100.00;100151.91;6245271;23;20542;-78
2023/01/02 01:11:08;;;;;;;33.00;25.77;;;;;;;5.20;100.00;100151.25;6245291;23;20207;-79
2023/01/02 01:13:35;;;;;;;31.80;24.93;;;;;;;5.24;100.00;100155.22;6218476;23;20204;-79
2023/01/02 01:16:27;;;;;;;33.97;26.77;;;;;;;5.22;100.00;100151.09;6244355;23;20204;-78
2023/01/02 01:18:55;;;;;;;38.30;26.27;;;;;;;5.28;100.00;100150.38;6239534;23;20195;-79
2023/01/02 01:21:22;;;;;;;34.50;24.17;;;;;;;5.23;100.00;100155.38;6218674;23;20208;-79
2023/01/02 01:23:51;;;;;;;29.00;22.93;;;;;;;5.21;100.00;100150.25;6245192;23;20668;-79
2023/01/02 01:26:18;;;;;;;26.07;20.33;;;;;;;5.22;100.00;100141.28;6218327;23;20745;-79
2023/01/02 01:28:45;;;;;;;26.30;20.77;;;;;;;5.26;100.00;100131.13;6245202;23;20283;-79
2023/01/02 01:31:13;;;;;;;26.03;20.80;;;;;;;5.25;100.00;100126.81;6245080;23;20247;-79
2023/01/02 01:33:41;;;;;;;26.53;21.20;;;;;;;5.21;100.00;100131.66;6218465;23;20211;-79
2023/01/02 01:36:10;;;;;;;26.93;20.67;;;;;;;5.21;100.00;100131.66;6244393;23;20201;-78
2023/01/02 01:38:36;;;;;;;22.20;17.90;;;;;;;5.20;100.00;100116.72;6244901;23;20283;-79
2023/01/02 01:41:04;;;;;;;25.07;19.83;;;;;;;5.20;100.00;100123.84;6245300;23;20201;-79
2023/01/02 01:43:44;;;;;;;26.67;19.53;;;;;;;5.20;100.00;100115.88;6245178;23;20295;-79
2023/01/02 01:46:21;;;;;;;27.33;19.43;;;;;;;5.22;100.00;100104.09;6218121;23;20257;-78
2023/01/02 01:48:52;;;;;;;28.10;19.10;;;;;;;5.25;100.00;100108.22;6218405;23;20208;-79
2023/01/02 01:51:19;;;;;;;23.20;18.60;;;;;;;5.22;100.00;100111.25;6218483;23;20205;-79
2023/01/02 01:53:48;;;;;;;29.60;18.80;;;;;;;5.24;100.00;100110.06;6219378;23;20243;-79
2023/01/02 01:56:16;;;;;;;22.97;17.97;;;;;;;5.17;100.00;100129.53;6246277;23;20209;-79
2023/01/02 01:58:44;;;;;;;21.97;17.73;;;;;;;5.15;100.00;100121.72;6246620;23;20208;-79
2023/01/02 02:01:13;;;;;;;21.67;17.33;;;;;;;5.16;100.00;100122.56;6220487;23;20551;-79
2023/01/02 02:03:43;;;;;;;23.07;17.73;;;;;;;5.15;100.00;100102.28;6220057;23;20232;-79
2023/01/02 02:06:10;;;;;;;19.77;17.00;;;;;;;5.25;100.00;100105.56;6246185;23;20235;-79
2023/01/02 02:08:44;;;;;;;21.70;16.90;;;;;;;5.24;100.00;100102.09;6247035;23;20208;-79
2023/01/02 02:11:12;;;;;;;24.80;17.07;;;;;;;5.15;100.00;100087.19;6220236;23;20587;-79
2023/01/02 02:13:39;;;;;;;20.87;17.47;;;;;;;5.09;100.00;100087.88;6246644;23;20235;-79
2023/01/02 02:16:15;;;;;;;20.53;17.37;;;;;;;5.03;100.00;100096.56;6219532;23;20247;-78
2023/01/02 02:18:48;;;;;;;19.47;16.90;;;;;;;5.03;100.00;100101.88;6246843;23;20270;-78
2023/01/02 02:21:44;;;;;;;19.90;17.00;;;;;;;5.02;100.00;100104.69;6246716;23;20270;-79
2023/01/02 02:24:19;;;;;;;20.53;17.03;;;;;;;5.01;100.00;100113.63;6219449;23;20735;-80
2023/01/02 02:27:24;;;;;;;20.83;17.27;;;;;;;5.03;100.00;100101.88;6246606;23;20968;-79
2023/01/02 02:30:13;;;;;;;21.50;17.30;;;;;;;5.04;100.00;100097.38;6190254;23;20254;-79
2023/01/02 02:32:42;;;;;;;23.60;17.13;;;;;;;5.07;100.00;100095.19;6208029;23;20511;-78
2023/01/02 02:35:28;;;;;;;21.10;17.60;;;;;;;5.05;100.00;100088.38;6246530;23;20214;-78
2023/01/02 02:37:54;;;;;;;21.50;17.70;;;;;;;5.07;100.00;100081.91;6246702;23;20204;-79
2023/01/02 02:40:42;;;;;;;23.30;18.07;;;;;;;5.14;100.00;100071.41;6246139;23;20226;-78
2023/01/02 02:43:28;;;;;;;20.77;16.60;;;;;;;5.16;100.00;100075.56;6246227;23;20204;-79
2023/01/02 02:46:15;;;;;;;17.97;16.07;;;;;;;5.03;100.00;100072.66;6220591;23;20219;-79
2023/01/02 02:49:04;;;;;;;19.37;15.67;;;;;;;5.05;100.00;100065.31;6246247;23;20669;-79
2023/01/02 02:51:37;;;;;;;18.43;15.83;;;;;;;5.04;100.00;100063.66;6219677;23;20205;-79
2023/01/02 02:54:36;;;;;;;22.77;16.63;;;;;;;5.03;100.00;100064.69;6194113;23;20586;-78
2023/01/02 02:57:05;;;;;;;20.97;16.67;;;;;;;5.02;100.00;100063.03;6219945;23;20204;-78
2023/01/02 02:59:33;;;;;;;20.80;16.97;;;;;;;5.02;100.00;100063.03;6219938;23;20209;-78
2023/01/02 03:02:01;;;;;;;23.63;17.57;;;;;;;5.01;100.00;100055.22;6219949;23;20204;-79
2023/01/02 03:04:29;;;;;;;24.53;18.03;;;;;;;5.04;100.00;100050.38;6245907;23;20235;-79
2023/01/02 03:07:15;;;;;;;22.27;18.17;;;;;;;5.01;100.00;100052.56;6246743;23;20280;-79
2023/01/02 03:10:04;;;;;;;30.80;18.23;;;;;;;5.01;100.00;100052.56;6246283;23;20233;-79
2023/01/02 03:13:04;;;;;;;27.63;18.27;;;;;;;4.94;100.00;100052.44;6219312;23;20208;-79
2023/01/02 03:16:08;;;;;;;21.97;17.87;;;;;;;4.91;100.00;100054.59;6219464;23;20224;-79
2023/01/02 03:18:41;;;;;;;21.40;17.17;;;;;;;4.88;100.00;100048.66;6092933;23;20215;-79
2023/01/02 03:21:21;;;;;;;24.00;18.50;;;;;;;4.92;100.00;100049.13;6199154;23;20595;-78
2023/01/02 03:23:56;;;;;;;27.47;18.13;;;;;;;4.97;100.00;100049.44;6210468;23;20201;-79
2023/01/02 03:26:26;;;;;;;24.07;19.30;;;;;;;4.96;100.00;100049.59;6180542;23;20699;-79
2023/01/02 03:28:55;;;;;;;23.00;18.93;;;;;;;4.94;100.00;100041.00;6219985;23;20557;-79
2023/01/02 03:31:24;;;;;;;23.67;18.37;;;;;;;4.91;100.00;100050.13;6247237;23;20185;-78
2023/01/02 03:33:58;;;;;;;21.50;17.50;;;;;;;4.86;100.00;100049.81;6219297;23;20215;-79
2023/01/02 03:36:28;;;;;;;20.83;17.27;;;;;;;4.84;100.00;100057.97;6219153;23;20204;-78
2023/01/02 03:39:11;;;;;;;21.80;17.00;;;;;;;4.81;100.00;100047.66;6219668;23;20200;-79
2023/01/02 03:41:59;;;;;;;24.90;16.50;;;;;;;4.86;100.00;100053.28;6246606;23;20215;-79
2023/01/02 03:45:03;;;;;;;26.30;16.50;;;;;;;4.83;100.00;100058.94;6215980;23;20193;-78
2023/01/02 03:47:50;;;;;;;26.63;16.80;;;;;;;4.86;100.00;100047.97;6071091;23;20259;-79
2023/01/02 03:50:48;;;;;;;25.13;16.00;;;;;;;4.81;100.00;100050.31;6212407;23;20276;-78
2023/01/02 03:53:15;;;;;;;23.77;17.17;;;;;;;4.84;100.00;100041.19;6241167;23;20275;-79
2023/01/02 03:55:50;;;;;;;38.20;16.77;;;;;;;4.76;100.00;100034.06;6246094;23;20201;-79
2023/01/02 03:58:40;;;;;;;25.87;15.93;;;;;;;4.81;100.00;100037.03;6219037;23;20204;-78
2023/01/02 04:01:13;;;;;;;21.97;15.80;;;;;;;4.73;100.00;100036.25;6197737;23;20669;-79
2023/01/02 04:03:51;;;;;;;19.40;16.23;;;;;;;4.69;100.00;100038.44;6219270;23;20209;-79
2023/01/02 04:06:21;;;;;;;21.63;16.43;;;;;;;4.70;100.00;100041.91;6200722;23;20584;-79
2023/01/02 04:09:00;;;;;;;22.53;16.27;;;;;;;4.68;100.00;100038.59;6198745;23;20209;-79
2023/01/02 04:11:27;;;;;;;22.67;16.73;;;;;;;4.68;100.00;100038.59;6245692;23;20607;-79
2023/01/02 04:13:58;;;;;;;27.73;16.90;;;;;;;4.57;100.00;100036.34;6218846;23;20662;-79
2023/01/02 04:16:29;;;;;;;31.63;16.27;;;;;;;4.58;100.00;100037.97;6218469;23;20200;-80
2023/01/02 04:19:01;;;;;;;21.10;17.10;;;;;;;4.57;100.00;100045.13;6219467;23;20212;-78
2023/01/02 04:21:30;;;;;;;20.40;16.93;;;;;;;4.59;100.00;100051.06;6219522;23;20674;-79
2023/01/02 04:24:21;;;;;;;25.83;16.50;;;;;;;4.66;100.00;100040.63;6219426;23;20212;-79
2023/01/02 04:26:51;;;;;;;22.83;17.10;;;;;;;4.63;100.00;100036.47;6245123;23;20270;-78
2023/01/02 04:29:18;;;;;;;21.90;16.87;;;;;;;4.66;100.00;100030.81;6219200;23;20283;-79
2023/01/02 04:32:01;;;;;;;23.37;16.87;;;;;;;4.63;100.00;100031.16;6245624;23;20200;-79
2023/01/02 04:34:31;;;;;;;25.03;17.17;;;;;;;4.58;100.00;100028.19;6218556;23;20241;-78
2023/01/02 04:36:57;;;;;;;24.97;17.00;;;;;;;4.59;100.00;100034.31;6218864;23;20664;-78
2023/01/02 04:39:25;;;;;;;25.37;16.80;;;;;;;4.55;100.00;100035.66;6245965;23;20181;-79
2023/01/02 04:41:52;;;;;;;21.40;16.83;;;;;;;4.54;100.00;100034.00;6218944;23;20207;-79
2023/01/02 04:44:19;;;;;;;25.57;16.87;;;;;;;4.54;100.00;100036.66;6244819;23;20236;-78
2023/01/02 04:46:46;;;;;;;22.50;17.77;;;;;;;4.53;100.00;100041.13;6241838;23;20209;-79
2023/01/02 04:49:12;;;;;;;36.47;17.43;;;;;;;4.55;100.00;100040.97;6215132;23;20205;-79
2023/01/02 04:51:39;;;;;;;20.70;16.87;;;;;;;4.52;100.00;100036.84;6234551;23;20279;-79
2023/01/02 04:54:05;;;;;;;21.83;16.97;;;;;;;4.56;100.00;100048.78;6244653;23;20232;-78
2023/01/02 04:56:32;;;;;;;23.67;16.07;;;;;;;4.57;100.00;100045.13;6245186;23;20216;-79
2023/01/02 04:58:59;;;;;;;27.07;17.43;;;;;;;4.55;100.00;100048.94;6245707;23;20208;-78
2023/01/02 05:01:25;;;;;;;35.57;17.40;;;;;;;4.54;100.00;100047.28;6246010;23;20187;-78
2023/01/02 05:03:52;;;;;;;45.70;16.83;;;;;;;4.55;100.00;100055.06;6245457;23;20283;-79
2023/01/02 05:06:19;;;;;;;39.00;16.67;;;;;;;4.57;100.00;100057.56;6244605;23;20678;-78
2023/01/02 05:08:46;;;;;;;38.20;17.40;;;;;;;4.56;100.00;100055.91;6218357;23;20614;-79
2023/01/02 05:11:18;;;;;;;21.47;16.50;;;;;;;4.56;100.00;100055.91;6245666;23;20204;-79
2023/01/02 05:13:45;;;;;;;30.77;16.37;;;;;;;4.65;100.00;100055.72;6182823;23;20577;-79
2023/01/02 05:16:12;;;;;;;25.13;15.53;;;;;;;4.66;100.00;100053.88;6241528;23;20717;-79
2023/01/02 05:18:39;;;;;;;24.20;15.37;;;;;;;4.60;100.00;100051.91;6245060;23;20600;-79
2023/01/02 05:23:47;;;;;;;22.50;15.20;;;;;;;4.62;100.00;100056.03;6245909;23;20195;-80
2023/01/02 05:23:59;;;;;;;21.03;14.47;;;;;;;4.56;100.00;100062.03;6224079;23;20201;-78
2023/01/02 05:26:26;;;;;;;18.70;14.60;;;;;;;4.50;100.00;100046.78;6218722;23;20204;-79
2023/01/02 05:28:53;;;;;;;21.50;14.50;;;;;;;4.56;100.00;100051.44;6246598;23;20251;-78
2023/01/02 05:31:20;;;;;;;23.03;15.07;;;;;;;4.51;100.00;100048.44;6247468;23;20201;-79
2023/01/02 05:33:54;;;;;;;22.63;14.50;;;;;;;4.42;100.00;100046.81;6247552;23;20208;-79
2023/01/02 05:36:22;;;;;;;17.83;14.40;;;;;;;4.39;100.00;100042.66;6247394;23;20650;-78
2023/01/02 05:38:49;;;;;;;18.20;15.07;;;;;;;4.38;100.00;100045.50;6220612;23;20204;-79
2023/01/02 05:41:16;;;;;;;19.77;14.70;;;;;;;4.31;100.00;100049.81;6247348;23;20646;-79
2023/01/02 05:43:43;;;;;;;22.43;14.30;;;;;;;4.28;100.00;100058.13;6220573;23;20206;-79
2023/01/02 05:46:13;;;;;;;21.10;14.67;;;;;;;4.28;100.00;100064.25;6246861;23;20200;-78
2023/01/02 05:48:40;;;;;;;20.87;13.70;;;;;;;4.31;100.00;100071.03;6247373;23;20295;-78
2023/01/02 05:51:09;;;;;;;23.33;14.20;;;;;;;4.26;100.00;100073.38;6247173;23;20216;-78
2023/01/02 05:53:36;;;;;;;16.47;13.23;;;;;;;4.26;100.00;100066.25;6221176;23;20208;-79
2023/01/02 05:56:12;;;;;;;27.63;13.73;;;;;;;4.26;100.00;100063.59;6246379;23;20232;-78
2023/01/02 05:58:41;;;;;;;21.37;13.50;;;;;;;4.13;100.00;100060.63;6247356;23;20212;-78
2023/01/02 06:01:13;;;;;;;19.80;13.77;;;;;;;4.12;100.00;100056.31;6192322;23;20209;-79
2023/01/02 06:03:44;;;;;;;17.57;13.97;;;;;;;4.11;100.00;100059.13;6237011;23;20255;-79
2023/01/02 06:06:11;;;;;;;16.07;14.00;;;;;;;4.08;100.00;100062.13;6246923;23;20225;-78
2023/01/02 06:08:38;;;;;;;18.00;13.93;;;;;;;4.13;100.00;100062.44;6220663;23;20212;-80
2023/01/02 06:11:05;;;;;;;19.77;13.43;;;;;;;4.03;100.00;100057.31;6220160;23;20677;-80
2023/01/02 06:13:33;;;;;;;19.13;13.90;;;;;;;4.05;100.00;100065.97;6220364;23;20615;-78
2023/01/02 06:16:01;;;;;;;19.67;13.30;;;;;;;4.01;100.00;100069.09;6219893;23;20330;-79
2023/01/02 06:18:30;;;;;;;22.33;13.33;;;;;;;4.03;100.00;100075.06;6220402;23;20220;-78
2023/01/02 06:21:00;;;;;;;17.40;13.53;;;;;;;3.98;100.00;100064.94;6246579;23;20212;-79
2023/01/02 06:23:27;;;;;;;24.63;13.67;;;;;;;3.97;100.00;100066.78;6246617;23;20215;-79
2023/01/02 06:25:54;;;;;;;18.67;13.83;;;;;;;3.92;100.00;100058.47;6220402;23;20207;-79
2023/01/02 06:28:21;;;;;;;18.80;13.63;;;;;;;3.96;100.00;100057.19;6246475;23;20265;-78
2023/01/02 06:30:48;;;;;;;19.70;13.17;;;;;;;3.95;100.00;100066.13;6220253;23;20215;-79
2023/01/02 06:33:14;;;;;;;23.63;14.50;;;;;;;3.91;100.00;100070.09;6246903;23;20225;-79
2023/01/02 06:35:41;;;;;;;20.77;13.67;;;;;;;3.89;100.00;100068.59;6246514;23;20284;-79
2023/01/02 06:38:07;;;;;;;17.53;13.83;;;;;;;3.88;100.00;100067.75;6246771;23;20210;-79
2023/01/02 06:40:34;;;;;;;19.70;15.00;;;;;;;3.86;100.00;100072.41;6245876;23;20293;-79
2023/01/02 06:43:01;;;;;;;20.50;15.20;;;;;;;3.84;100.00;100077.06;6247054;23;20206;-79
2023/01/02 06:45:27;;;;;;;20.00;14.23;;;;;;;3.84;100.00;100077.06;6246973;23;20204;-79
2023/01/02 06:47:56;;;;;;;16.70;13.80;;;;;;;3.88;100.00;100078.38;6246651;23;20657;-79
2023/01/02 06:50:24;;;;;;;17.67;14.00;;;;;;;3.90;100.00;100072.91;6220012;23;20208;-79
2023/01/02 06:53:00;;;;;;;18.13;13.90;;;;;;;3.84;100.00;100066.44;6245520;23;20274;-79
2023/01/02 06:55:26;;;;;;;18.90;14.60;;;;;;;3.88;100.00;100072.25;6246567;23;20668;-79
2023/01/02 06:57:53;;;;;;;18.57;13.47;;;;;;;3.88;100.00;100082.84;6246029;23;20208;-78
2023/01/02 07:00:19;;;;;;;22.10;13.83;;;;;;;3.91;100.00;100075.41;6245998;23;20207;-78
2023/01/02 07:02:46;;;;;;;17.07;13.57;;;;;;;3.91;100.00;100083.34;6245774;23;20279;-79
2023/01/02 07:05:13;;;;;;;26.33;14.60;;;;;;;3.94;100.00;100076.88;6167718;23;20217;-79
2023/01/02 07:07:46;;;;;;;20.03;14.47;;;;;;;3.90;100.00;100068.44;6195116;23;20211;-79
2023/01/02 07:10:13;;;;;;;18.10;14.23;;;;;;;3.96;100.00;100072.25;6246189;23;20196;-79
2023/01/02 07:12:39;;;;;;;19.70;14.23;;;;;;;3.93;100.00;100068.09;6219139;23;20217;-79
2023/01/02 07:15:06;;;;;;;21.30;13.90;;;;;;;3.95;100.00;100071.44;6245867;23;20204;-78
2023/01/02 07:17:33;;;;;;;20.37;13.80;;;;;;;3.99;100.00;100066.63;6245636;23;20207;-79
2023/01/02 07:19:59;;;;;;;19.27;13.63;;;;;;;3.92;100.00;100060.31;6244348;23;20211;-79
2023/01/02 07:22:28;;;;;;;17.33;13.67;;;;;;;3.96;100.00;100062.47;6243961;23;20589;-79
2023/01/02 07:24:54;;;;;;;17.40;13.27;;;;;;;4.04;100.00;100055.50;6219482;23;20212;-79
2023/01/02 07:27:21;;;;;;;18.87;13.93;;;;;;;4.02;100.00;100054.81;6245723;23;20288;-79
2023/01/02 07:29:47;;;;;;;17.43;14.20;;;;;;;3.99;100.00;100064.78;6245535;23;20205;-79
2023/01/02 07:32:14;;;;;;;19.47;13.70;;;;;;;4.04;100.00;100068.75;6245100;23;20211;-79
2023/01/02 07:34:41;;;;;;;18.83;13.37;;;;;;;4.05;100.00;100073.06;6245709;23;20204;-79
2023/01/02 07:37:07;;;;;;;18.67;13.30;;;;;;;4.05;100.00;100070.44;6244453;23;20264;-79
2023/01/02 07:39:34;;;;;;;16.10;13.80;;;;;;;4.12;100.00;100089.97;6245662;23;20205;-79
2023/01/02 07:42:00;;;;;;;30.07;13.77;;;;;;;4.11;100.00;100078.53;6092186;23;20239;-79
2023/01/02 07:44:27;;;;;;;15.80;12.97;;;;;;;4.14;100.00;100088.81;6205193;23;20196;-79
2023/01/02 07:46:53;;;;;;;24.47;12.97;;;;;;;4.14;100.00;100088.81;6245550;23;20594;-79
2023/01/02 07:49:20;;;;;;;20.50;14.20;;;;;;;4.14;100.00;100086.16;6214043;23;20232;-79
2023/01/02 07:51:47;;;;;;;20.53;12.33;;;;;;;4.15;100.00;100082.53;6237043;23;20757;-78
2023/01/02 07:54:13;;;;;;;16.83;13.53;;;;;;;4.13;100.00;100081.84;6245050;23;20212;-78
2023/01/02 07:56:40;;;;;;;15.23;13.20;;;;;;;4.04;100.00;100076.72;6245794;23;20209;-79
2023/01/02 07:59:07;;;;;;;15.70;13.03;;;;;;;4.01;100.00;100085.84;6215578;23;20205;-79
2023/01/02 08:01:33;;;;;;;15.03;13.30;;;;;;;4.03;100.00;100069.75;6177049;23;20205;-79
2023/01/02 08:04:00;;;;;;;31.10;13.37;;;;;;;4.07;100.00;100076.38;6245677;23;20205;-80
2023/01/02 08:06:27;;;;;;;15.93;12.70;;;;;;;4.04;100.00;100076.72;6244772;23;20253;-79
2023/01/02 08:08:54;;;;;;;15.70;13.10;;;;;;;4.02;100.00;100081.34;6245544;23;20200;-78
2023/01/02 08:11:21;;;;;;;16.30;12.90;;;;;;;4.05;100.00;100081.88;6245328;23;20200;-79
2023/01/02 08:13:48;;;;;;;16.80;13.27;;;;;;;4.07;100.00;100077.19;6244990;23;20205;-79
2023/01/02 08:16:17;;;;;;;16.77;13.10;;;;;;;4.05;100.00;100071.25;6217937;23;20616;-78
2023/01/02 08:18:45;;;;;;;15.10;13.30;;;;;;;4.17;100.00;100077.84;6218507;23;20205;-79
2023/01/02 08:21:12;;;;;;;21.83;13.43;;;;;;;4.21;100.00;100078.34;6218946;23;20525;-78
2023/01/02 08:23:39;;;;;;;14.90;12.83;;;;;;;4.22;100.00;100069.41;6245484;23;20204;-79
2023/01/02 08:26:08;;;;;;;16.53;13.30;;;;;;;4.28;100.00;100074.88;6244473;23;20209;-79
2023/01/02 08:28:35;;;;;;;15.90;12.40;;;;;;;4.36;100.00;100074.03;6218757;23;20228;-79
2023/01/02 08:31:14;;;;;;;19.07;14.17;;;;;;;4.40;100.00;100073.50;6218620;23;20201;-79
2023/01/02 08:33:41;;;;;;;16.47;13.60;;;;;;;4.46;100.00;100082.63;6219102;23;20222;-79
2023/01/02 08:36:08;;;;;;;15.90;13.27;;;;;;;4.52;100.00;100081.97;6244291;23;20231;-78
2023/01/02 08:38:35;;;;;;;16.17;12.57;;;;;;;4.56;100.00;100082.44;6244819;23;20209;-78
2023/01/02 08:41:02;;;;;;;14.20;12.10;;;;;;;4.54;100.00;100084.41;6244946;23;20275;-78
2023/01/02 08:43:32;;;;;;;15.47;12.73;;;;;;;4.55;100.00;100083.44;6244107;23;20230;-78
2023/01/02 08:46:04;;;;;;;15.67;12.70;;;;;;;4.54;100.00;100079.13;6218742;23;20230;-79
2023/01/02 08:48:32;;;;;;;16.40;12.57;;;;;;;4.54;100.00;100085.25;6244756;23;20624;-79
2023/01/02 08:50:58;;;;;;;15.67;12.63;;;;;;;4.57;100.00;100092.06;6244801;23;20550;-79
2023/01/02 08:53:25;;;;;;;15.93;12.17;;;;;;;4.52;100.00;100084.63;6211763;23;20268;-79
2023/01/02 08:55:51;;;;;;;15.43;12.50;;;;;;;4.58;100.00;100081.25;6236562;23;20280;-79
2023/01/02 08:58:18;;;;;;;16.60;13.37;;;;;;;4.62;100.00;100076.47;6244868;23;20231;-78
2023/01/02 09:00:45;;;;;;;21.40;13.20;;;;;;;4.65;100.00;100082.25;6245104;23;20208;-78
2023/01/02 09:03:11;;;;;;;15.00;12.93;;;;;;;4.69;100.00;100098.66;6244032;23;20223;-79
2023/01/02 09:05:38;;;;;;;16.80;12.77;;;;;;;4.69;100.00;100093.34;6244590;23;20597;-79
2023/01/02 09:08:05;;;;;;;16.20;13.07;;;;;;;4.65;100.00;100097.34;6240559;23;20264;-78
2023/01/02 09:10:31;;;;;;;13.10;11.53;;;;;;;4.70;100.00;100095.00;6218038;23;20211;-79
2023/01/02 09:12:58;;;;;;;17.57;12.70;;;;;;;4.76;100.00;100097.78;6245357;23;20717;-80
2023/01/02 09:15:25;;;;;;;18.80;12.10;;;;;;;4.78;100.00;100103.78;6219169;23;20207;-79
2023/01/02 09:17:51;;;;;;;15.63;12.10;;;;;;;4.80;100.00;100107.09;6243663;23;20201;-79
2023/01/02 09:20:18;;;;;;;14.80;11.80;;;;;;;4.86;100.00;100092.28;6217784;23;20228;-79
2023/01/02 09:22:45;;;;;;;17.77;11.80;;;;;;;4.99;100.00;100086.44;6244270;23;20680;-79
2023/01/02 09:25:11;;;;;;;14.20;11.33;;;;;;;5.01;100.00;100071.16;6245204;23;20208;-79
2023/01/02 09:27:38;;;;;;;14.33;11.80;;;;;;;5.07;100.00;100081.09;6244859;23;20280;-79
2023/01/02 09:30:05;;;;;;;15.40;11.47;;;;;;;5.14;100.00;100077.56;6242892;23;20208;-79
2023/01/02 09:32:31;;;;;;;18.80;13.67;;;;;;;5.05;100.00;100070.63;6245271;23;20209;-79
2023/01/02 09:34:58;;;;;;;17.43;14.80;;;;;;;5.10;100.00;100078.06;6218571;23;20211;-79
2023/01/02 09:37:25;;;;;;;14.60;12.47;;;;;;;5.10;100.00;100081.56;6245642;23;20280;-79
2023/01/02 09:39:51;;;;;;;14.73;10.47;;;;;;;5.15;100.00;100078.38;6218718;23;20532;-79
2023/01/02 09:42:18;;;;;;;14.47;11.40;;;;;;;5.17;100.00;100074.56;6244859;23;20652;-78
2023/01/02 09:44:52;;;;;;;15.50;11.43;;;;;;;5.21;100.00;100080.34;6245014;23;20200;-79
2023/01/02 09:47:20;;;;;;;19.37;12.90;;;;;;;5.27;100.00;100077.00;6219076;23;20235;-79
2023/01/02 09:49:49;;;;;;;24.20;18.23;;;;;;;5.36;100.00;100068.00;6219177;23;20211;-79
2023/01/02 09:52:23;;;;;;;19.73;13.53;;;;;;;5.48;100.00;100074.53;6244389;23;20213;-78
2023/01/02 09:54:50;;;;;;;16.70;12.87;;;;;;;5.53;100.00;100071.34;6218152;23;20259;-79
2023/01/02 09:57:25;;;;;;;16.47;12.67;;;;;;;5.54;100.00;100065.88;6218023;23;20284;-79
2023/01/02 10:00:20;;;;;;;14.63;11.73;;;;;;;5.58;100.00;100063.69;6245502;23;20204;-79
2023/01/02 10:02:50;;;;;;;16.27;12.17;;;;;;;5.60;100.00;100051.84;6217309;23;20262;-80
2023/01/02 10:05:16;;;;;;;12.93;11.53;;;;;;;5.65;100.00;100048.66;6245156;23;20213;-79
2023/01/02 10:07:52;;;;;;;15.90;11.70;;;;;;;5.62;100.00;100046.38;6244770;23;20657;-80
2023/01/02 10:10:40;;;;;;;14.27;10.73;;;;;;;5.65;100.00;100040.69;6245093;23;20766;-79
2023/01/02 10:13:13;;;;;;;16.23;11.30;;;;;;;5.64;100.00;100047.88;6219121;23;20201;-79
2023/01/02 10:15:45;;;;;;;17.10;13.67;;;;;;;5.63;100.00;100040.06;6246815;23;20204;-79
2023/01/02 10:18:47;;;;;;;16.27;11.70;;;;;;;5.66;100.00;100045.84;6218986;23;20235;-78
2023/01/02 10:21:17;;;;;;;15.70;12.20;;;;;;;5.60;100.00;100029.78;6195887;23;20209;-80
2023/01/02 10:23:54;;;;;;;15.97;11.93;;;;;;;5.61;100.00;100023.44;6220305;23;20219;-79
2023/01/02 10:26:26;;;;;;;19.43;11.97;;;;;;;5.54;100.00;100025.19;6220310;23;20224;-78
2023/01/02 10:29:25;;;;;;;19.50;13.03;;;;;;;5.52;100.00;100024.50;6245951;23;20207;-79
2023/01/02 10:31:57;;;;;;;15.27;12.23;;;;;;;5.34;100.00;100019.50;6219922;23;20231;-79
2023/01/02 10:34:24;;;;;;;14.87;12.70;;;;;;;5.15;100.00;100007.50;6218924;23;20653;-79
2023/01/02 10:36:51;;;;;;;14.67;12.30;;;;;;;5.24;100.00;100016.25;6245591;23;20201;-79
2023/01/02 10:39:21;;;;;;;18.67;13.10;;;;;;;5.30;100.00;100012.88;6246304;23;20185;-79
2023/01/02 10:41:51;;;;;;;16.17;13.07;;;;;;;5.35;100.00;100009.69;6094207;23;20215;-79
2023/01/02 10:44:34;;;;;;;21.30;14.73;;;;;;;5.44;100.00;100011.28;6220435;23;20291;-79
2023/01/02 10:47:27;;;;;;;15.20;12.43;;;;;;;5.55;100.00;100010.91;6219684;23;20208;-78
2023/01/02 10:49:56;;;;;;;12.17;10.63;;;;;;;5.54;100.00;100007.41;6217869;23;20209;-79
2023/01/02 10:52:31;;;;;;;13.73;11.33;;;;;;;5.55;100.00;100011.69;6245494;23;20207;-79
2023/01/02 10:54:58;;;;;;;12.93;11.50;;;;;;;5.56;100.00;99999.22;6250207;23;20602;-79
2023/01/02 10:57:39;;;;;;;14.20;12.30;;;;;;;5.66;100.00;100008.63;6243394;23;20287;-79
2023/01/02 11:00:24;;;;;;;12.83;11.53;;;;;;;5.66;100.00;100003.31;6218794;23;20185;-79
2023/01/02 11:03:14;;;;;;;12.23;10.93;;;;;;;5.68;100.00;100006.63;6245411;23;20209;-78
2023/01/02 11:05:46;;;;;;;13.23;11.83;;;;;;;5.74;100.00;100007.72;6218697;23;20274;-79
2023/01/02 11:08:15;;;;;;;12.73;11.43;;;;;;;5.65;100.00;100006.97;6219063;23;20229;-79
2023/01/02 11:10:42;;;;;;;12.57;11.23;;;;;;;5.73;100.00;100003.44;6192968;23;20292;-79
2023/01/02 11:13:12;;;;;;;12.90;11.60;;;;;;;5.73;100.00;99990.13;6216739;23;20669;-80
2023/01/02 11:15:59;;;;;;;13.50;11.37;;;;;;;5.63;100.00;99981.56;6243383;23;20209;-79
2023/01/02 11:18:28;;;;;;;13.67;12.10;;;;;;;5.64;100.00;99984.06;6217677;23;20208;-79
2023/01/02 11:21:02;;;;;;;14.27;12.13;;;;;;;5.69;100.00;99983.53;6244114;23;20236;-80
2023/01/02 11:23:42;;;;;;;15.47;12.90;;;;;;;5.70;100.00;99974.53;6220995;23;20216;-78
2023/01/02 11:26:28;;;;;;;15.03;12.83;;;;;;;5.51;100.00;99957.25;6245667;23;20208;-79